sensor_id;sensor_type;location;lat;lon;timestamp;P1;durP1;ratioP1;P2;durP2;ratioP2
20865;SDS011;10593;48.398;10.698;2023-04-01T00:01:01;1.63;;;0.30;;
20865;SDS011;10593;48.398;10.698;2023-04-01T00:03:29;0.80;;;0.60;;
20865;SDS011;10593;48.398;10.698;2023-04-01T00:05:56;0.60;;;0.50;;
20865;SDS011;10593;48.398;10.698;2023-04-01T00:08:24;0.53;;;0.33;;
20865;SDS011;10593;48.398;10.698;2023-04-01T00:10:51;1.07;;;0.67;;
20865;SDS011;10593;48.398;10.698;2023-04-01T00:13:18;0.53;;;0.47;;
20865;SDS011;10593;48.398;10.698;2023-04-01T00:15:44;1.10;;;0.50;;
20865;SDS011;10593;48.398;10.698;2023-04-01T00:18:10;1.43;;;0.67;;
20865;SDS011;10593;48.398;10.698;2023-04-01T00:20:37;0.83;;;0.37;;
20865;SDS011;10593;48.398;10.698;2023-04-01T00:23:03;0.93;;;0.70;;
20865;SDS011;10593;48.398;10.698;2023-04-01T00:25:30;1.30;;;0.60;;
20865;SDS011;10593;48.398;10.698;2023-04-01T00:27:56;0.53;;;0.50;;
20865;SDS011;10593;48.398;10.698;2023-04-01T00:30:21;1.30;;;0.87;;
20865;SDS011;10593;48.398;10.698;2023-04-01T00:32:50;0.70;;;0.50;;
20865;SDS011;10593;48.398;10.698;2023-04-01T00:35:17;1.03;;;0.60;;
20865;SDS011;10593;48.398;10.698;2023-04-01T00:37:43;0.73;;;0.40;;
20865;SDS011;10593;48.398;10.698;2023-04-01T00:40:20;0.80;;;0.60;;
20865;SDS011;10593;48.398;10.698;2023-04-01T00:43:00;0.87;;;0.57;;
20865;SDS011;10593;48.398;10.698;2023-04-01T00:45:33;1.30;;;0.50;;
20865;SDS011;10593;48.398;10.698;2023-04-01T00:50:34;0.67;;;0.50;;
20865;SDS011;10593;48.398;10.698;2023-04-01T00:53:03;1.43;;;0.70;;
20865;SDS011;10593;48.398;10.698;2023-04-01T00:55:33;2.70;;;0.50;;
20865;SDS011;10593;48.398;10.698;2023-04-01T00:58:03;1.90;;;0.80;;
20865;SDS011;10593;48.398;10.698;2023-04-01T01:00:33;1.03;;;0.63;;
20865;SDS011;10593;48.398;10.698;2023-04-01T01:03:01;0.40;;;0.40;;
20865;SDS011;10593;48.398;10.698;2023-04-01T01:05:47;0.77;;;0.50;;
20865;SDS011;10593;48.398;10.698;2023-04-01T01:11:35;0.40;;;0.40;;
20865;SDS011;10593;48.398;10.698;2023-04-01T01:17:13;0.77;;;0.40;;
20865;SDS011;10593;48.398;10.698;2023-04-01T01:26:18;0.40;;;0.40;;
20865;SDS011;10593;48.398;10.698;2023-04-01T01:37:39;0.37;;;0.30;;
20865;SDS011;10593;48.398;10.698;2023-04-01T01:40:09;0.63;;;0.57;;
20865;SDS011;10593;48.398;10.698;2023-04-01T01:42:37;0.83;;;0.40;;
20865;SDS011;10593;48.398;10.698;2023-04-01T01:45:09;0.37;;;0.30;;
20865;SDS011;10593;48.398;10.698;2023-04-01T01:47:37;0.90;;;0.40;;
20865;SDS011;10593;48.398;10.698;2023-04-01T01:50:06;0.40;;;0.30;;
20865;SDS011;10593;48.398;10.698;2023-04-01T01:52:34;0.23;;;0.23;;
20865;SDS011;10593;48.398;10.698;2023-04-01T01:54:59;1.27;;;0.70;;
20865;SDS011;10593;48.398;10.698;2023-04-01T01:57:26;1.00;;;0.60;;
20865;SDS011;10593;48.398;10.698;2023-04-01T02:00:00;0.77;;;0.40;;
20865;SDS011;10593;48.398;10.698;2023-04-01T02:02:40;0.67;;;0.57;;
20865;SDS011;10593;48.398;10.698;2023-04-01T02:05:09;0.60;;;0.57;;
20865;SDS011;10593;48.398;10.698;2023-04-01T02:07:42;0.47;;;0.30;;
20865;SDS011;10593;48.398;10.698;2023-04-01T02:10:17;0.40;;;0.40;;
20865;SDS011;10593;48.398;10.698;2023-04-01T02:12:47;0.30;;;0.30;;
20865;SDS011;10593;48.398;10.698;2023-04-01T02:15:15;0.53;;;0.40;;
20865;SDS011;10593;48.398;10.698;2023-04-01T02:17:43;1.27;;;0.40;;
20865;SDS011;10593;48.398;10.698;2023-04-01T02:20:18;0.67;;;0.50;;
20865;SDS011;10593;48.398;10.698;2023-04-01T02:22:48;0.87;;;0.57;;
20865;SDS011;10593;48.398;10.698;2023-04-01T02:25:18;0.57;;;0.20;;
20865;SDS011;10593;48.398;10.698;2023-04-01T02:27:50;0.30;;;0.30;;
20865;SDS011;10593;48.398;10.698;2023-04-01T02:30:17;0.60;;;0.50;;
20865;SDS011;10593;48.398;10.698;2023-04-01T02:32:43;0.40;;;0.30;;
20865;SDS011;10593;48.398;10.698;2023-04-01T02:35:12;1.03;;;0.40;;
20865;SDS011;10593;48.398;10.698;2023-04-01T02:37:41;0.27;;;0.10;;
20865;SDS011;10593;48.398;10.698;2023-04-01T02:40:10;0.43;;;0.40;;
20865;SDS011;10593;48.398;10.698;2023-04-01T02:42:38;0.53;;;0.20;;
20865;SDS011;10593;48.398;10.698;2023-04-01T02:45:05;1.20;;;0.43;;
20865;SDS011;10593;48.398;10.698;2023-04-01T02:47:31;0.23;;;0.20;;
20865;SDS011;10593;48.398;10.698;2023-04-01T02:49:57;1.50;;;0.20;;
20865;SDS011;10593;48.398;10.698;2023-04-01T02:52:29;0.30;;;0.20;;
20865;SDS011;10593;48.398;10.698;2023-04-01T02:54:56;0.10;;;0.10;;
20865;SDS011;10593;48.398;10.698;2023-04-01T02:57:22;0.40;;;0.20;;
20865;SDS011;10593;48.398;10.698;2023-04-01T02:59:49;0.10;;;0.10;;
20865;SDS011;10593;48.398;10.698;2023-04-01T03:02:15;0.30;;;0.20;;
20865;SDS011;10593;48.398;10.698;2023-04-01T03:04:42;0.77;;;0.43;;
20865;SDS011;10593;48.398;10.698;2023-04-01T03:07:08;0.13;;;0.13;;
20865;SDS011;10593;48.398;10.698;2023-04-01T03:09:35;0.30;;;0.30;;
20865;SDS011;10593;48.398;10.698;2023-04-01T03:12:02;0.30;;;0.30;;
20865;SDS011;10593;48.398;10.698;2023-04-01T03:14:28;0.37;;;0.37;;
20865;SDS011;10593;48.398;10.698;2023-04-01T03:16:53;0.63;;;0.20;;
20865;SDS011;10593;48.398;10.698;2023-04-01T03:19:19;0.10;;;0.10;;
20865;SDS011;10593;48.398;10.698;2023-04-01T03:21:45;0.20;;;0.10;;
20865;SDS011;10593;48.398;10.698;2023-04-01T03:24:11;0.20;;;0.20;;
20865;SDS011;10593;48.398;10.698;2023-04-01T03:26:36;0.47;;;0.20;;
20865;SDS011;10593;48.398;10.698;2023-04-01T03:29:02;0.60;;;0.40;;
20865;SDS011;10593;48.398;10.698;2023-04-01T03:31:28;0.07;;;0.07;;
20865;SDS011;10593;48.398;10.698;2023-04-01T03:33:53;0.03;;;0.03;;
20865;SDS011;10593;48.398;10.698;2023-04-01T03:36:19;0.47;;;0.20;;
20865;SDS011;10593;48.398;10.698;2023-04-01T03:38:45;0.10;;;0.10;;
20865;SDS011;10593;48.398;10.698;2023-04-01T03:41:12;0.10;;;0.10;;
20865;SDS011;10593;48.398;10.698;2023-04-01T03:43:39;0.47;;;0.30;;
20865;SDS011;10593;48.398;10.698;2023-04-01T03:46:05;0.10;;;0.10;;
20865;SDS011;10593;48.398;10.698;2023-04-01T03:48:31;0.13;;;0.10;;
20865;SDS011;10593;48.398;10.698;2023-04-01T03:50:57;0.50;;;0.23;;
20865;SDS011;10593;48.398;10.698;2023-04-01T03:53:22;0.13;;;0.10;;
20865;SDS011;10593;48.398;10.698;2023-04-01T03:55:48;0.50;;;0.20;;
20865;SDS011;10593;48.398;10.698;2023-04-01T03:58:16;0.20;;;0.20;;
20865;SDS011;10593;48.398;10.698;2023-04-01T04:00:42;0.10;;;0.10;;
20865;SDS011;10593;48.398;10.698;2023-04-01T04:03:08;0.03;;;0.03;;
20865;SDS011;10593;48.398;10.698;2023-04-01T04:05:34;0.10;;;0.10;;
20865;SDS011;10593;48.398;10.698;2023-04-01T04:08:00;0.27;;;0.10;;
20865;SDS011;10593;48.398;10.698;2023-04-01T04:10:25;0.10;;;0.10;;
20865;SDS011;10593;48.398;10.698;2023-04-01T04:12:51;0.10;;;0.10;;
20865;SDS011;10593;48.398;10.698;2023-04-01T04:15:17;0.40;;;0.40;;
20865;SDS011;10593;48.398;10.698;2023-04-01T04:17:44;0.50;;;0.50;;
20865;SDS011;10593;48.398;10.698;2023-04-01T04:20:10;0.50;;;0.37;;
20865;SDS011;10593;48.398;10.698;2023-04-01T04:22:36;0.10;;;0.10;;
20865;SDS011;10593;48.398;10.698;2023-04-01T04:25:02;0.20;;;0.17;;
20865;SDS011;10593;48.398;10.698;2023-04-01T04:27:28;0.20;;;0.20;;
20865;SDS011;10593;48.398;10.698;2023-04-01T04:29:53;0.57;;;0.30;;
20865;SDS011;10593;48.398;10.698;2023-04-01T04:32:19;1.27;;;0.77;;
20865;SDS011;10593;48.398;10.698;2023-04-01T04:34:45;1.40;;;0.20;;
20865;SDS011;10593;48.398;10.698;2023-04-01T04:37:10;0.30;;;0.30;;
20865;SDS011;10593;48.398;10.698;2023-04-01T04:39:36;0.20;;;0.20;;
20865;SDS011;10593;48.398;10.698;2023-04-01T04:42:02;0.43;;;0.37;;
20865;SDS011;10593;48.398;10.698;2023-04-01T04:44:27;0.30;;;0.20;;
20865;SDS011;10593;48.398;10.698;2023-04-01T04:46:53;0.77;;;0.30;;
20865;SDS011;10593;48.398;10.698;2023-04-01T04:49:18;0.47;;;0.30;;
20865;SDS011;10593;48.398;10.698;2023-04-01T04:51:44;0.30;;;0.30;;
20865;SDS011;10593;48.398;10.698;2023-04-01T04:54:10;1.40;;;0.30;;
20865;SDS011;10593;48.398;10.698;2023-04-01T04:56:36;1.33;;;0.33;;
20865;SDS011;10593;48.398;10.698;2023-04-01T04:59:01;0.47;;;0.40;;
20865;SDS011;10593;48.398;10.698;2023-04-01T05:01:27;1.10;;;0.90;;
20865;SDS011;10593;48.398;10.698;2023-04-01T05:03:53;0.50;;;0.50;;
20865;SDS011;10593;48.398;10.698;2023-04-01T05:06:19;0.47;;;0.40;;
20865;SDS011;10593;48.398;10.698;2023-04-01T05:08:45;0.93;;;0.40;;
20865;SDS011;10593;48.398;10.698;2023-04-01T05:11:13;0.63;;;0.53;;
20865;SDS011;10593;48.398;10.698;2023-04-01T05:13:42;0.67;;;0.60;;
20865;SDS011;10593;48.398;10.698;2023-04-01T05:16:09;0.70;;;0.70;;
20865;SDS011;10593;48.398;10.698;2023-04-01T05:18:38;1.03;;;0.70;;
20865;SDS011;10593;48.398;10.698;2023-04-01T05:21:04;0.57;;;0.57;;
20865;SDS011;10593;48.398;10.698;2023-04-01T05:23:32;0.60;;;0.60;;
20865;SDS011;10593;48.398;10.698;2023-04-01T05:25:58;0.53;;;0.43;;
20865;SDS011;10593;48.398;10.698;2023-04-01T05:28:31;0.40;;;0.40;;
20865;SDS011;10593;48.398;10.698;2023-04-01T05:31:00;1.00;;;0.63;;
20865;SDS011;10593;48.398;10.698;2023-04-01T05:33:28;0.70;;;0.60;;
20865;SDS011;10593;48.398;10.698;2023-04-01T05:35:55;0.50;;;0.50;;
20865;SDS011;10593;48.398;10.698;2023-04-01T05:38:21;1.83;;;0.90;;
20865;SDS011;10593;48.398;10.698;2023-04-01T05:40:47;1.73;;;0.90;;
20865;SDS011;10593;48.398;10.698;2023-04-01T05:43:12;0.50;;;0.50;;
20865;SDS011;10593;48.398;10.698;2023-04-01T05:45:38;0.73;;;0.40;;
20865;SDS011;10593;48.398;10.698;2023-04-01T05:48:04;0.63;;;0.63;;
20865;SDS011;10593;48.398;10.698;2023-04-01T05:50:30;2.40;;;0.50;;
20865;SDS011;10593;48.398;10.698;2023-04-01T05:52:55;0.50;;;0.30;;
20865;SDS011;10593;48.398;10.698;2023-04-01T05:55:21;0.60;;;0.50;;
20865;SDS011;10593;48.398;10.698;2023-04-01T05:57:47;0.50;;;0.50;;
20865;SDS011;10593;48.398;10.698;2023-04-01T06:00:14;0.37;;;0.37;;
20865;SDS011;10593;48.398;10.698;2023-04-01T06:02:41;0.93;;;0.77;;
20865;SDS011;10593;48.398;10.698;2023-04-01T06:07:55;1.37;;;1.27;;
20865;SDS011;10593;48.398;10.698;2023-04-01T06:19:05;1.60;;;1.50;;
20865;SDS011;10593;48.398;10.698;2023-04-01T06:30:47;1.37;;;0.80;;
20865;SDS011;10593;48.398;10.698;2023-04-01T06:36:31;1.17;;;0.70;;
20865;SDS011;10593;48.398;10.698;2023-04-01T06:45:29;1.03;;;0.70;;
20865;SDS011;10593;48.398;10.698;2023-04-01T06:48:32;1.03;;;0.50;;
20865;SDS011;10593;48.398;10.698;2023-04-01T06:51:23;0.30;;;0.30;;
20865;SDS011;10593;48.398;10.698;2023-04-01T06:54:25;0.67;;;0.57;;
20865;SDS011;10593;48.398;10.698;2023-04-01T06:57:49;0.53;;;0.53;;
20865;SDS011;10593;48.398;10.698;2023-04-01T06:59:57;0.90;;;0.70;;
20865;SDS011;10593;48.398;10.698;2023-04-01T07:02:34;0.77;;;0.40;;
20865;SDS011;10593;48.398;10.698;2023-04-01T07:05:10;0.97;;;0.60;;
20865;SDS011;10593;48.398;10.698;2023-04-01T07:07:40;0.93;;;0.70;;
20865;SDS011;10593;48.398;10.698;2023-04-01T07:10:17;0.63;;;0.40;;
20865;SDS011;10593;48.398;10.698;2023-04-01T07:12:58;0.97;;;0.83;;
20865;SDS011;10593;48.398;10.698;2023-04-01T07:15:34;0.80;;;0.80;;
20865;SDS011;10593;48.398;10.698;2023-04-01T07:18:07;0.90;;;0.90;;
20865;SDS011;10593;48.398;10.698;2023-04-01T07:20:44;0.73;;;0.53;;
20865;SDS011;10593;48.398;10.698;2023-04-01T07:23:21;0.30;;;0.30;;
20865;SDS011;10593;48.398;10.698;2023-04-01T07:25:53;1.60;;;0.50;;
20865;SDS011;10593;48.398;10.698;2023-04-01T07:28:30;0.27;;;0.27;;
20865;SDS011;10593;48.398;10.698;2023-04-01T07:31:07;0.43;;;0.40;;
20865;SDS011;10593;48.398;10.698;2023-04-01T07:37:18;0.50;;;0.20;;
20865;SDS011;10593;48.398;10.698;2023-04-01T07:49:12;0.47;;;0.27;;
20865;SDS011;10593;48.398;10.698;2023-04-01T07:52:00;1.27;;;0.30;;
20865;SDS011;10593;48.398;10.698;2023-04-01T07:57:37;0.30;;;0.30;;
20865;SDS011;10593;48.398;10.698;2023-04-01T08:03:12;0.60;;;0.30;;
20865;SDS011;10593;48.398;10.698;2023-04-01T08:12:10;0.20;;;0.20;;
20865;SDS011;10593;48.398;10.698;2023-04-01T08:14:40;0.40;;;0.37;;
20865;SDS011;10593;48.398;10.698;2023-04-01T08:28:59;0.30;;;0.30;;
20865;SDS011;10593;48.398;10.698;2023-04-01T08:31:50;0.37;;;0.30;;
20865;SDS011;10593;48.398;10.698;2023-04-01T08:34:30;0.57;;;0.13;;
20865;SDS011;10593;48.398;10.698;2023-04-01T08:37:14;0.70;;;0.40;;
20865;SDS011;10593;48.398;10.698;2023-04-01T08:39:49;0.93;;;0.37;;
20865;SDS011;10593;48.398;10.698;2023-04-01T08:53:57;0.27;;;0.27;;
20865;SDS011;10593;48.398;10.698;2023-04-01T09:08:41;0.60;;;0.30;;
20865;SDS011;10593;48.398;10.698;2023-04-01T09:15:36;0.63;;;0.27;;
20865;SDS011;10593;48.398;10.698;2023-04-01T09:24:06;0.50;;;0.50;;
20865;SDS011;10593;48.398;10.698;2023-04-01T09:44:34;0.73;;;0.30;;
20865;SDS011;10593;48.398;10.698;2023-04-01T09:56:07;1.23;;;0.63;;
20865;SDS011;10593;48.398;10.698;2023-04-01T10:14:10;0.47;;;0.47;;
20865;SDS011;10593;48.398;10.698;2023-04-01T11:01:22;0.10;;;0.10;;
20865;SDS011;10593;48.398;10.698;2023-04-01T11:04:28;0.10;;;0.10;;
20865;SDS011;10593;48.398;10.698;2023-04-01T11:07:49;0.20;;;0.20;;
20865;SDS011;10593;48.398;10.698;2023-04-01T11:23:19;0.33;;;0.30;;
20865;SDS011;10593;48.398;10.698;2023-04-01T11:26:12;0.20;;;0.20;;
20865;SDS011;10593;48.398;10.698;2023-04-01T11:40:47;0.67;;;0.30;;
20865;SDS011;10593;48.398;10.698;2023-04-01T11:49:46;0.43;;;0.40;;
20865;SDS011;10593;48.398;10.698;2023-04-01T11:55:47;0.40;;;0.40;;
20865;SDS011;10593;48.398;10.698;2023-04-01T12:04:19;0.40;;;0.40;;
20865;SDS011;10593;48.398;10.698;2023-04-01T12:07:36;0.67;;;0.33;;
20865;SDS011;10593;48.398;10.698;2023-04-01T12:18:54;0.10;;;0.10;;
20865;SDS011;10593;48.398;10.698;2023-04-01T12:21:37;0.10;;;0.10;;
20865;SDS011;10593;48.398;10.698;2023-04-01T12:30:10;0.30;;;0.20;;
20865;SDS011;10593;48.398;10.698;2023-04-01T12:36:00;0.20;;;0.20;;
20865;SDS011;10593;48.398;10.698;2023-04-01T12:42:12;0.30;;;0.30;;
20865;SDS011;10593;48.398;10.698;2023-04-01T12:48:08;0.23;;;0.23;;
20865;SDS011;10593;48.398;10.698;2023-04-01T12:54:05;0.67;;;0.63;;
20865;SDS011;10593;48.398;10.698;2023-04-01T13:03:43;0.30;;;0.30;;
20865;SDS011;10593;48.398;10.698;2023-04-01T13:06:38;0.30;;;0.30;;
20865;SDS011;10593;48.398;10.698;2023-04-01T13:20:54;0.40;;;0.40;;
20865;SDS011;10593;48.398;10.698;2023-04-01T13:29:56;0.40;;;0.20;;
20865;SDS011;10593;48.398;10.698;2023-04-01T13:32:50;0.30;;;0.30;;
20865;SDS011;10593;48.398;10.698;2023-04-01T13:35:40;0.50;;;0.50;;
20865;SDS011;10593;48.398;10.698;2023-04-01T13:38:29;0.50;;;0.50;;
20865;SDS011;10593;48.398;10.698;2023-04-01T13:41:22;0.30;;;0.30;;
20865;SDS011;10593;48.398;10.698;2023-04-01T13:44:12;0.30;;;0.30;;
20865;SDS011;10593;48.398;10.698;2023-04-01T13:53:11;0.40;;;0.10;;
20865;SDS011;10593;48.398;10.698;2023-04-01T14:08:42;0.43;;;0.43;;
20865;SDS011;10593;48.398;10.698;2023-04-01T14:12:34;0.20;;;0.10;;
20865;SDS011;10593;48.398;10.698;2023-04-01T14:27:31;0.37;;;0.37;;
20865;SDS011;10593;48.398;10.698;2023-04-01T14:30:32;0.30;;;0.30;;
20865;SDS011;10593;48.398;10.698;2023-04-01T14:33:24;0.20;;;0.20;;
20865;SDS011;10593;48.398;10.698;2023-04-01T14:42:29;0.23;;;0.23;;
20865;SDS011;10593;48.398;10.698;2023-04-01T14:51:08;0.30;;;0.30;;
20865;SDS011;10593;48.398;10.698;2023-04-01T14:53:43;0.30;;;0.30;;
20865;SDS011;10593;48.398;10.698;2023-04-01T14:56:48;0.30;;;0.30;;
20865;SDS011;10593;48.398;10.698;2023-04-01T15:01:47;0.20;;;0.20;;
20865;SDS011;10593;48.398;10.698;2023-04-01T15:12:37;0.20;;;0.20;;
20865;SDS011;10593;48.398;10.698;2023-04-01T15:18:08;0.10;;;0.10;;
20865;SDS011;10593;48.398;10.698;2023-04-01T15:21:25;0.30;;;0.30;;
20865;SDS011;10593;48.398;10.698;2023-04-01T15:24:22;0.20;;;0.20;;
20865;SDS011;10593;48.398;10.698;2023-04-01T15:30:03;0.30;;;0.30;;
20865;SDS011;10593;48.398;10.698;2023-04-01T15:35:30;0.40;;;0.40;;
20865;SDS011;10593;48.398;10.698;2023-04-01T15:41:16;2.30;;;2.10;;
20865;SDS011;10593;48.398;10.698;2023-04-01T15:44:37;1.70;;;1.00;;
20865;SDS011;10593;48.398;10.698;2023-04-01T15:47:36;0.70;;;0.70;;
20865;SDS011;10593;48.398;10.698;2023-04-01T15:50:35;0.60;;;0.60;;
20865;SDS011;10593;48.398;10.698;2023-04-01T15:59:32;0.13;;;0.13;;
20865;SDS011;10593;48.398;10.698;2023-04-01T16:11:43;0.50;;;0.50;;
20865;SDS011;10593;48.398;10.698;2023-04-01T16:18:32;0.50;;;0.50;;
20865;SDS011;10593;48.398;10.698;2023-04-01T16:29:48;0.53;;;0.53;;
20865;SDS011;10593;48.398;10.698;2023-04-01T16:35:24;0.60;;;0.60;;
20865;SDS011;10593;48.398;10.698;2023-04-01T16:43:56;0.70;;;0.70;;
20865;SDS011;10593;48.398;10.698;2023-04-01T16:46:43;0.70;;;0.70;;
20865;SDS011;10593;48.398;10.698;2023-04-01T16:49:23;0.70;;;0.70;;
20865;SDS011;10593;48.398;10.698;2023-04-01T16:52:15;0.67;;;0.67;;
20865;SDS011;10593;48.398;10.698;2023-04-01T16:55:11;0.60;;;0.60;;
20865;SDS011;10593;48.398;10.698;2023-04-01T16:57:50;0.70;;;0.60;;
20865;SDS011;10593;48.398;10.698;2023-04-01T17:00:23;0.90;;;0.90;;
20865;SDS011;10593;48.398;10.698;2023-04-01T17:11:08;2.97;;;0.80;;
20865;SDS011;10593;48.398;10.698;2023-04-01T17:17:18;0.97;;;0.73;;
20865;SDS011;10593;48.398;10.698;2023-04-01T17:25:48;0.30;;;0.30;;
20865;SDS011;10593;48.398;10.698;2023-04-01T17:28:30;0.33;;;0.33;;
20865;SDS011;10593;48.398;10.698;2023-04-01T17:31:34;0.50;;;0.50;;
20865;SDS011;10593;48.398;10.698;2023-04-01T17:42:54;0.93;;;0.90;;
20865;SDS011;10593;48.398;10.698;2023-04-01T17:45:33;0.70;;;0.70;;
20865;SDS011;10593;48.398;10.698;2023-04-01T18:00:48;0.30;;;0.30;;
20865;SDS011;10593;48.398;10.698;2023-04-01T18:18:02;1.60;;;1.50;;
20865;SDS011;10593;48.398;10.698;2023-04-01T18:26:33;1.93;;;1.83;;
20865;SDS011;10593;48.398;10.698;2023-04-01T18:29:04;1.03;;;1.03;;
20865;SDS011;10593;48.398;10.698;2023-04-01T18:31:51;1.13;;;1.03;;
20865;SDS011;10593;48.398;10.698;2023-04-01T18:37:55;1.93;;;1.80;;
20865;SDS011;10593;48.398;10.698;2023-04-01T18:40:38;1.40;;;1.30;;
20865;SDS011;10593;48.398;10.698;2023-04-01T18:46:12;1.50;;;1.40;;
20865;SDS011;10593;48.398;10.698;2023-04-01T18:49:06;1.50;;;1.20;;
20865;SDS011;10593;48.398;10.698;2023-04-01T18:57:26;1.87;;;1.40;;
20865;SDS011;10593;48.398;10.698;2023-04-01T19:00:32;7.27;;;2.37;;
20865;SDS011;10593;48.398;10.698;2023-04-01T19:03:20;3.03;;;2.60;;
20865;SDS011;10593;48.398;10.698;2023-04-01T19:06:00;3.30;;;3.00;;
20865;SDS011;10593;48.398;10.698;2023-04-01T19:08:41;1.73;;;1.60;;
20865;SDS011;10593;48.398;10.698;2023-04-01T19:11:13;1.60;;;1.50;;
20865;SDS011;10593;48.398;10.698;2023-04-01T19:19:51;1.43;;;1.33;;
20865;SDS011;10593;48.398;10.698;2023-04-01T19:25:29;1.43;;;1.33;;
20865;SDS011;10593;48.398;10.698;2023-04-01T19:28:07;1.50;;;1.30;;
20865;SDS011;10593;48.398;10.698;2023-04-01T19:31:05;1.80;;;1.53;;
20865;SDS011;10593;48.398;10.698;2023-04-01T19:34:16;2.07;;;1.87;;
20865;SDS011;10593;48.398;10.698;2023-04-01T19:36:54;2.47;;;2.23;;
20865;SDS011;10593;48.398;10.698;2023-04-01T19:39:44;4.00;;;2.90;;
20865;SDS011;10593;48.398;10.698;2023-04-01T19:42:43;3.60;;;2.67;;
20865;SDS011;10593;48.398;10.698;2023-04-01T19:51:31;2.37;;;2.17;;
20865;SDS011;10593;48.398;10.698;2023-04-01T19:54:22;2.50;;;2.30;;
20865;SDS011;10593;48.398;10.698;2023-04-01T19:57:17;1.60;;;1.50;;
20865;SDS011;10593;48.398;10.698;2023-04-01T20:00:01;0.70;;;0.70;;
20865;SDS011;10593;48.398;10.698;2023-04-01T20:03:00;0.97;;;0.93;;
20865;SDS011;10593;48.398;10.698;2023-04-01T20:11:21;0.60;;;0.60;;
20865;SDS011;10593;48.398;10.698;2023-04-01T20:20:01;0.57;;;0.57;;
20865;SDS011;10593;48.398;10.698;2023-04-01T20:25:18;2.23;;;0.70;;
20865;SDS011;10593;48.398;10.698;2023-04-01T20:28:05;0.27;;;0.27;;
20865;SDS011;10593;48.398;10.698;2023-04-01T20:43:02;0.47;;;0.40;;
20865;SDS011;10593;48.398;10.698;2023-04-01T20:46:05;0.50;;;0.50;;
20865;SDS011;10593;48.398;10.698;2023-04-01T21:03:18;1.10;;;0.63;;
20865;SDS011;10593;48.398;10.698;2023-04-01T21:06:16;0.67;;;0.57;;
20865;SDS011;10593;48.398;10.698;2023-04-01T21:29:39;0.70;;;0.70;;
20865;SDS011;10593;48.398;10.698;2023-04-01T21:32:43;0.83;;;0.80;;
20865;SDS011;10593;48.398;10.698;2023-04-01T21:38:30;1.10;;;1.00;;
20865;SDS011;10593;48.398;10.698;2023-04-01T22:02:39;0.57;;;0.50;;
20865;SDS011;10593;48.398;10.698;2023-04-01T22:05:36;0.87;;;0.87;;
20865;SDS011;10593;48.398;10.698;2023-04-01T22:08:34;0.37;;;0.37;;
20865;SDS011;10593;48.398;10.698;2023-04-01T22:11:54;0.40;;;0.40;;
20865;SDS011;10593;48.398;10.698;2023-04-01T22:14:30;0.97;;;0.63;;
20865;SDS011;10593;48.398;10.698;2023-04-01T22:25:33;0.40;;;0.40;;
20865;SDS011;10593;48.398;10.698;2023-04-01T22:28:16;0.60;;;0.60;;
20865;SDS011;10593;48.398;10.698;2023-04-01T22:30:54;0.30;;;0.30;;
20865;SDS011;10593;48.398;10.698;2023-04-01T22:48:25;0.37;;;0.37;;
20865;SDS011;10593;48.398;10.698;2023-04-01T22:51:07;1.13;;;0.50;;
20865;SDS011;10593;48.398;10.698;2023-04-01T22:54:01;0.50;;;0.40;;
20865;SDS011;10593;48.398;10.698;2023-04-01T22:56:39;0.50;;;0.50;;
20865;SDS011;10593;48.398;10.698;2023-04-01T22:59:16;1.20;;;1.10;;
20865;SDS011;10593;48.398;10.698;2023-04-01T23:02:03;0.37;;;0.37;;
20865;SDS011;10593;48.398;10.698;2023-04-01T23:04:47;0.50;;;0.50;;
20865;SDS011;10593;48.398;10.698;2023-04-01T23:10:46;0.53;;;0.53;;
20865;SDS011;10593;48.398;10.698;2023-04-01T23:13:25;0.70;;;0.70;;
20865;SDS011;10593;48.398;10.698;2023-04-01T23:16:13;0.50;;;0.50;;
20865;SDS011;10593;48.398;10.698;2023-04-01T23:18:51;1.63;;;0.60;;
20865;SDS011;10593;48.398;10.698;2023-04-01T23:21:49;0.60;;;0.60;;
20865;SDS011;10593;48.398;10.698;2023-04-01T23:24:33;0.67;;;0.67;;
20865;SDS011;10593;48.398;10.698;2023-04-01T23:27:24;0.57;;;0.33;;
20865;SDS011;10593;48.398;10.698;2023-04-01T23:38:40;1.13;;;0.53;;
20865;SDS011;10593;48.398;10.698;2023-04-01T23:41:25;0.80;;;0.80;;
20865;SDS011;10593;48.398;10.698;2023-04-01T23:44:00;0.47;;;0.47;;
20865;SDS011;10593;48.398;10.698;2023-04-01T23:46:35;0.40;;;0.40;;
20865;SDS011;10593;48.398;10.698;2023-04-01T23:49:04;1.47;;;0.70;;
20865;SDS011;10593;48.398;10.698;2023-04-01T23:51:58;0.63;;;0.50;;
20865;SDS011;10593;48.398;10.698;2023-04-01T23:54:34;0.30;;;0.30;;
20865;SDS011;10593;48.398;10.698;2023-04-01T23:57:14;0.50;;;0.50;;
20865;SDS011;10593;48.398;10.698;2023-04-01T23:59:59;1.07;;;0.60;;
